createdAt,value
2018-03-20T00:04:32.332Z,12.5
2018-03-20T00:14:31.202Z,12.9
2018-03-20T00:24:30.423Z,12.6
2018-03-20T00:34:29.713Z,12.6
2018-03-20T00:44:29.206Z,13.1
2018-03-20T00:54:27.991Z,12.7
2018-03-20T01:04:27.276Z,12.7
2018-03-20T01:14:26.454Z,12.4
2018-03-20T01:24:25.838Z,12.7
2018-03-20T01:34:24.968Z,12.8
2018-03-20T01:44:24.107Z,12.8
2018-03-20T01:54:23.323Z,13.1
2018-03-20T02:04:22.802Z,12.5
2018-03-20T02:14:21.655Z,13.1
2018-03-20T02:24:21.219Z,12.9
2018-03-20T02:34:20.358Z,13
2018-03-20T02:44:19.297Z,12.9
2018-03-20T02:54:19.045Z,13.1
2018-03-20T03:04:17.730Z,12.9
2018-03-20T03:14:17.107Z,13.1
2018-03-20T03:24:16.257Z,12.5
2018-03-20T03:34:15.452Z,13.1
2018-03-20T03:44:14.798Z,12.9
2018-03-20T03:54:14.007Z,13.2
2018-03-20T04:04:12.942Z,13.1
2018-03-20T04:14:12.440Z,12.7
2018-03-20T04:24:11.472Z,12.7
2018-03-20T04:34:10.608Z,12.9
2018-03-20T04:44:09.900Z,13.1
2018-03-20T04:54:09.018Z,12.6
2018-03-20T05:04:08.310Z,13.1
2018-03-20T05:14:07.766Z,13.1
2018-03-20T05:24:06.671Z,13.2
2018-03-20T05:34:05.804Z,13.1
2018-03-20T05:44:05.015Z,12.8
2018-03-20T05:54:04.223Z,13.1
2018-03-20T06:04:03.574Z,13
2018-03-20T06:14:02.660Z,13.1
2018-03-20T06:24:01.986Z,12.9
2018-03-20T06:34:01.211Z,13.2
2018-03-20T06:44:00.356Z,12.9
2018-03-20T06:53:59.498Z,12.9
2018-03-20T07:03:58.692Z,13.3
2018-03-20T07:13:58.291Z,13.7
2018-03-20T07:23:57.155Z,14
2018-03-20T07:33:56.323Z,14.4
2018-03-20T07:43:55.528Z,14
2018-03-20T07:53:54.860Z,14.6
2018-03-20T08:03:54.275Z,14.3
2018-03-20T08:13:53.301Z,14.6
2018-03-20T08:23:52.375Z,14.4
2018-03-20T08:33:52.161Z,14.4
2018-03-20T08:43:51.020Z,14.3
2018-03-20T08:53:50.096Z,14.4
2018-03-20T09:03:49.753Z,14.5
2018-03-20T09:13:48.408Z,13.9
2018-03-20T09:23:47.618Z,14.2
2018-03-20T09:33:46.844Z,14.6
2018-03-20T09:43:46.152Z,13.1
2018-03-20T09:53:45.371Z,14.1
2018-03-20T10:03:44.581Z,14.2
2018-03-20T10:13:43.706Z,14.7
2018-03-20T10:23:42.955Z,14.4
2018-03-20T10:33:42.121Z,14.3
2018-03-20T10:43:41.397Z,14.4
2018-03-20T10:53:40.827Z,14.3
2018-03-20T11:03:39.980Z,14.4
2018-03-20T11:13:38.912Z,14.2
2018-03-20T11:23:38.117Z,14
2018-03-20T11:33:37.363Z,14.6
2018-03-20T11:43:36.735Z,14.1
2018-03-20T11:53:35.790Z,14.1
2018-03-20T12:03:35.251Z,14.1
2018-03-20T12:13:34.168Z,14.4
2018-03-20T12:23:33.448Z,14.3
2018-03-20T12:33:32.575Z,14
2018-03-20T12:43:31.871Z,14.5
2018-03-20T12:53:30.989Z,14.1
2018-03-20T13:03:30.247Z,14
2018-03-20T13:13:29.457Z,13.8
2018-03-20T13:23:28.684Z,14
2018-03-20T13:33:28.201Z,13
2018-03-20T13:43:27.264Z,13.5
2018-03-20T13:53:26.229Z,13.5
2018-03-20T14:03:25.449Z,12.6
2018-03-20T14:13:24.646Z,12.5
2018-03-20T14:23:23.903Z,12.4
2018-03-20T14:33:23.094Z,12.7
2018-03-20T14:43:22.347Z,12.6
2018-03-20T14:53:21.811Z,12.5
2018-03-20T15:03:20.804Z,13.1
2018-03-20T15:13:20.010Z,13.1
2018-03-20T15:23:19.172Z,13.1
2018-03-20T15:33:18.289Z,13
2018-03-20T15:43:17.544Z,13.2
2018-03-20T15:53:16.750Z,12.8
2018-03-20T16:03:16.192Z,13.2
2018-03-20T16:13:15.354Z,12.5
2018-03-20T16:23:14.356Z,13.1
2018-03-20T16:33:13.543Z,12.9
2018-03-20T16:43:12.745Z,13.1
2018-03-20T16:53:12.509Z,13
2018-03-20T17:03:11.202Z,13.1
2018-03-20T17:13:10.474Z,12.8
2018-03-20T17:23:09.571Z,12.4
2018-03-20T17:33:08.780Z,13.1
2018-03-20T17:43:07.994Z,12.8
2018-03-20T17:53:07.346Z,12.6
2018-03-20T18:03:06.426Z,12.9
2018-03-20T18:13:05.687Z,12.6
2018-03-20T18:23:04.986Z,12.8
2018-03-20T18:33:04.122Z,12.6
2018-03-20T18:43:03.430Z,12.8
2018-03-20T18:53:02.530Z,13
2018-03-20T19:03:01.706Z,12.8
2018-03-20T19:13:01.136Z,13
2018-03-20T19:23:00.433Z,13.1
2018-03-20T19:32:59.367Z,12.6
2018-03-20T19:42:58.858Z,13.1
2018-03-20T19:52:57.747Z,13
2018-03-20T20:02:57.035Z,13
2018-03-20T20:12:56.491Z,13.2
2018-03-20T20:22:55.413Z,13.2
2018-03-20T20:32:54.726Z,13.1
2018-03-20T20:42:54.003Z,12.5
2018-03-20T20:52:53.007Z,12.8
2018-03-20T21:02:52.624Z,13.1
2018-03-20T21:12:51.420Z,13.1
2018-03-20T21:22:50.762Z,13.1
2018-03-20T21:32:50.177Z,12.6
2018-03-20T21:42:49.401Z,13
2018-03-20T21:52:48.668Z,12.9
2018-03-20T22:02:47.511Z,12.5
2018-03-20T22:12:46.722Z,12.6
2018-03-20T22:22:46.015Z,13.1
2018-03-20T22:32:45.393Z,12.9
2018-03-20T22:42:44.378Z,13.1
2018-03-20T22:52:43.500Z,12.9
2018-03-20T23:02:42.791Z,12.5
2018-03-20T23:12:42.240Z,12.9
2018-03-20T23:22:41.161Z,12.8
2018-03-20T23:32:40.414Z,12.8
2018-03-20T23:42:39.873Z,12.6
2018-03-20T23:52:38.786Z,13
